sensor_id;sensor_type;location;lat;lon;timestamp;P1;durP1;ratioP1;P2;durP2;ratioP2
2646;SDS011;1333;50.958;6.770;2023-06-05T00:00:38;2.83;;;1.40;;
2646;SDS011;1333;50.958;6.770;2023-06-05T00:03:04;5.57;;;2.10;;
2646;SDS011;1333;50.958;6.770;2023-06-05T00:05:29;1.80;;;1.23;;
2646;SDS011;1333;50.958;6.770;2023-06-05T00:07:56;4.13;;;1.57;;
2646;SDS011;1333;50.958;6.770;2023-06-05T00:10:21;1.63;;;1.40;;
2646;SDS011;1333;50.958;6.770;2023-06-05T00:12:47;1.97;;;1.80;;
2646;SDS011;1333;50.958;6.770;2023-06-05T00:15:13;1.70;;;1.40;;
2646;SDS011;1333;50.958;6.770;2023-06-05T00:17:38;2.27;;;1.00;;
2646;SDS011;1333;50.958;6.770;2023-06-05T00:20:04;1.40;;;1.30;;
2646;SDS011;1333;50.958;6.770;2023-06-05T00:22:30;2.30;;;1.60;;
2646;SDS011;1333;50.958;6.770;2023-06-05T00:24:58;1.77;;;1.40;;
2646;SDS011;1333;50.958;6.770;2023-06-05T00:27:24;1.60;;;1.50;;
2646;SDS011;1333;50.958;6.770;2023-06-05T00:29:50;3.23;;;1.83;;
2646;SDS011;1333;50.958;6.770;2023-06-05T00:32:15;2.93;;;1.80;;
2646;SDS011;1333;50.958;6.770;2023-06-05T00:34:41;1.27;;;1.17;;
2646;SDS011;1333;50.958;6.770;2023-06-05T00:37:06;2.17;;;1.60;;
2646;SDS011;1333;50.958;6.770;2023-06-05T00:39:32;1.87;;;1.63;;
2646;SDS011;1333;50.958;6.770;2023-06-05T00:41:58;1.60;;;1.50;;
2646;SDS011;1333;50.958;6.770;2023-06-05T00:44:23;1.90;;;1.10;;
2646;SDS011;1333;50.958;6.770;2023-06-05T00:46:49;1.97;;;1.70;;
2646;SDS011;1333;50.958;6.770;2023-06-05T00:49:16;1.40;;;1.10;;
2646;SDS011;1333;50.958;6.770;2023-06-05T00:51:43;2.40;;;1.70;;
2646;SDS011;1333;50.958;6.770;2023-06-05T00:54:10;2.57;;;1.40;;
2646;SDS011;1333;50.958;6.770;2023-06-05T00:56:38;2.40;;;2.20;;
2646;SDS011;1333;50.958;6.770;2023-06-05T00:59:06;2.03;;;1.33;;
2646;SDS011;1333;50.958;6.770;2023-06-05T01:01:32;2.57;;;1.60;;
2646;SDS011;1333;50.958;6.770;2023-06-05T01:03:59;1.67;;;1.10;;
2646;SDS011;1333;50.958;6.770;2023-06-05T01:06:28;2.03;;;1.60;;
2646;SDS011;1333;50.958;6.770;2023-06-05T01:08:59;1.90;;;1.57;;
2646;SDS011;1333;50.958;6.770;2023-06-05T01:11:31;1.67;;;1.50;;
2646;SDS011;1333;50.958;6.770;2023-06-05T01:14:30;1.60;;;1.50;;
2646;SDS011;1333;50.958;6.770;2023-06-05T01:16:57;1.80;;;1.40;;
2646;SDS011;1333;50.958;6.770;2023-06-05T01:19:25;1.50;;;1.20;;
2646;SDS011;1333;50.958;6.770;2023-06-05T01:21:54;1.77;;;1.37;;
2646;SDS011;1333;50.958;6.770;2023-06-05T01:24:20;3.17;;;1.50;;
2646;SDS011;1333;50.958;6.770;2023-06-05T01:29:38;1.60;;;1.50;;
2646;SDS011;1333;50.958;6.770;2023-06-05T01:32:15;2.43;;;1.20;;
2646;SDS011;1333;50.958;6.770;2023-06-05T01:34:44;1.40;;;1.30;;
2646;SDS011;1333;50.958;6.770;2023-06-05T01:37:13;1.83;;;1.50;;
2646;SDS011;1333;50.958;6.770;2023-06-05T01:39:43;1.97;;;1.47;;
2646;SDS011;1333;50.958;6.770;2023-06-05T01:42:11;2.40;;;1.83;;
2646;SDS011;1333;50.958;6.770;2023-06-05T01:44:39;2.80;;;1.67;;
2646;SDS011;1333;50.958;6.770;2023-06-05T01:47:06;1.73;;;1.30;;
2646;SDS011;1333;50.958;6.770;2023-06-05T01:49:32;2.43;;;1.80;;
2646;SDS011;1333;50.958;6.770;2023-06-05T01:51:58;2.90;;;1.67;;
2646;SDS011;1333;50.958;6.770;2023-06-05T01:54:24;2.30;;;1.60;;
2646;SDS011;1333;50.958;6.770;2023-06-05T01:56:51;1.97;;;1.77;;
2646;SDS011;1333;50.958;6.770;2023-06-05T01:59:17;1.93;;;1.63;;
2646;SDS011;1333;50.958;6.770;2023-06-05T02:01:43;2.47;;;1.53;;
2646;SDS011;1333;50.958;6.770;2023-06-05T02:04:09;1.93;;;1.57;;
2646;SDS011;1333;50.958;6.770;2023-06-05T02:06:35;2.10;;;1.60;;
2646;SDS011;1333;50.958;6.770;2023-06-05T02:09:08;2.07;;;1.73;;
2646;SDS011;1333;50.958;6.770;2023-06-05T02:11:35;1.50;;;1.30;;
2646;SDS011;1333;50.958;6.770;2023-06-05T02:14:02;3.40;;;2.13;;
2646;SDS011;1333;50.958;6.770;2023-06-05T02:16:28;1.23;;;1.10;;
2646;SDS011;1333;50.958;6.770;2023-06-05T02:18:54;3.17;;;1.67;;
2646;SDS011;1333;50.958;6.770;2023-06-05T02:21:22;2.67;;;1.63;;
2646;SDS011;1333;50.958;6.770;2023-06-05T02:23:48;3.73;;;1.80;;
2646;SDS011;1333;50.958;6.770;2023-06-05T02:26:14;1.77;;;1.63;;
2646;SDS011;1333;50.958;6.770;2023-06-05T02:28:43;4.10;;;1.50;;
2646;SDS011;1333;50.958;6.770;2023-06-05T02:31:08;2.27;;;1.47;;
2646;SDS011;1333;50.958;6.770;2023-06-05T02:33:40;2.30;;;1.60;;
2646;SDS011;1333;50.958;6.770;2023-06-05T02:36:06;1.90;;;1.50;;
2646;SDS011;1333;50.958;6.770;2023-06-05T02:38:32;1.97;;;1.50;;
2646;SDS011;1333;50.958;6.770;2023-06-05T02:40:58;2.43;;;1.70;;
2646;SDS011;1333;50.958;6.770;2023-06-05T02:43:24;3.17;;;1.93;;
2646;SDS011;1333;50.958;6.770;2023-06-05T02:45:50;2.30;;;1.80;;
2646;SDS011;1333;50.958;6.770;2023-06-05T02:48:16;1.67;;;1.43;;
2646;SDS011;1333;50.958;6.770;2023-06-05T02:50:41;2.23;;;1.67;;
2646;SDS011;1333;50.958;6.770;2023-06-05T02:53:07;1.67;;;1.47;;
2646;SDS011;1333;50.958;6.770;2023-06-05T02:55:32;2.37;;;2.00;;
2646;SDS011;1333;50.958;6.770;2023-06-05T02:57:58;5.83;;;2.37;;
2646;SDS011;1333;50.958;6.770;2023-06-05T03:00:23;2.17;;;1.87;;
2646;SDS011;1333;50.958;6.770;2023-06-05T03:02:51;4.50;;;2.40;;
2646;SDS011;1333;50.958;6.770;2023-06-05T03:05:16;2.60;;;1.87;;
2646;SDS011;1333;50.958;6.770;2023-06-05T03:07:43;2.23;;;1.77;;
2646;SDS011;1333;50.958;6.770;2023-06-05T03:10:09;2.20;;;2.00;;
2646;SDS011;1333;50.958;6.770;2023-06-05T03:12:34;2.37;;;2.17;;
2646;SDS011;1333;50.958;6.770;2023-06-05T03:15:00;4.30;;;3.00;;
2646;SDS011;1333;50.958;6.770;2023-06-05T03:17:26;4.47;;;2.10;;
2646;SDS011;1333;50.958;6.770;2023-06-05T03:19:52;3.10;;;2.80;;
2646;SDS011;1333;50.958;6.770;2023-06-05T03:22:17;4.33;;;2.50;;
2646;SDS011;1333;50.958;6.770;2023-06-05T03:24:43;3.80;;;1.83;;
2646;SDS011;1333;50.958;6.770;2023-06-05T03:27:10;1.70;;;1.60;;
2646;SDS011;1333;50.958;6.770;2023-06-05T03:29:35;2.80;;;2.20;;
2646;SDS011;1333;50.958;6.770;2023-06-05T03:32:01;4.37;;;2.40;;
2646;SDS011;1333;50.958;6.770;2023-06-05T03:34:26;7.10;;;2.50;;
2646;SDS011;1333;50.958;6.770;2023-06-05T03:36:52;2.83;;;2.20;;
2646;SDS011;1333;50.958;6.770;2023-06-05T03:39:17;4.50;;;2.30;;
2646;SDS011;1333;50.958;6.770;2023-06-05T03:41:43;3.90;;;2.10;;
2646;SDS011;1333;50.958;6.770;2023-06-05T03:44:09;3.10;;;2.20;;
2646;SDS011;1333;50.958;6.770;2023-06-05T03:46:34;2.00;;;1.77;;
2646;SDS011;1333;50.958;6.770;2023-06-05T03:49:00;2.50;;;1.93;;
2646;SDS011;1333;50.958;6.770;2023-06-05T03:51:30;5.33;;;2.20;;
2646;SDS011;1333;50.958;6.770;2023-06-05T03:53:56;3.80;;;2.23;;
2646;SDS011;1333;50.958;6.770;2023-06-05T03:56:23;7.00;;;2.20;;
2646;SDS011;1333;50.958;6.770;2023-06-05T03:59:15;2.77;;;1.80;;
2646;SDS011;1333;50.958;6.770;2023-06-05T04:01:44;3.50;;;2.10;;
2646;SDS011;1333;50.958;6.770;2023-06-05T04:04:10;2.70;;;2.13;;
2646;SDS011;1333;50.958;6.770;2023-06-05T04:06:36;1.73;;;1.53;;
2646;SDS011;1333;50.958;6.770;2023-06-05T04:09:02;3.20;;;2.30;;
2646;SDS011;1333;50.958;6.770;2023-06-05T04:11:34;2.90;;;2.60;;
2646;SDS011;1333;50.958;6.770;2023-06-05T04:13:59;3.37;;;2.67;;
2646;SDS011;1333;50.958;6.770;2023-06-05T04:16:25;3.10;;;2.80;;
2646;SDS011;1333;50.958;6.770;2023-06-05T04:18:51;5.00;;;2.57;;
2646;SDS011;1333;50.958;6.770;2023-06-05T04:21:17;2.97;;;2.67;;
2646;SDS011;1333;50.958;6.770;2023-06-05T04:23:42;4.03;;;2.63;;
2646;SDS011;1333;50.958;6.770;2023-06-05T04:26:08;3.23;;;2.80;;
2646;SDS011;1333;50.958;6.770;2023-06-05T04:28:34;2.33;;;2.00;;
2646;SDS011;1333;50.958;6.770;2023-06-05T04:31:00;2.10;;;1.90;;
2646;SDS011;1333;50.958;6.770;2023-06-05T04:33:26;2.50;;;2.13;;
2646;SDS011;1333;50.958;6.770;2023-06-05T04:35:52;4.73;;;2.70;;
2646;SDS011;1333;50.958;6.770;2023-06-05T04:38:18;3.20;;;2.43;;
2646;SDS011;1333;50.958;6.770;2023-06-05T04:40:46;6.10;;;2.83;;
2646;SDS011;1333;50.958;6.770;2023-06-05T04:43:15;2.50;;;2.27;;
2646;SDS011;1333;50.958;6.770;2023-06-05T04:45:41;3.30;;;2.50;;
2646;SDS011;1333;50.958;6.770;2023-06-05T04:48:07;2.87;;;2.37;;
2646;SDS011;1333;50.958;6.770;2023-06-05T04:50:33;3.30;;;2.83;;
2646;SDS011;1333;50.958;6.770;2023-06-05T04:53:00;3.67;;;2.63;;
2646;SDS011;1333;50.958;6.770;2023-06-05T04:55:26;3.23;;;2.27;;
2646;SDS011;1333;50.958;6.770;2023-06-05T04:57:52;3.53;;;2.33;;
2646;SDS011;1333;50.958;6.770;2023-06-05T05:00:18;3.07;;;2.33;;
2646;SDS011;1333;50.958;6.770;2023-06-05T05:02:44;2.80;;;1.83;;
2646;SDS011;1333;50.958;6.770;2023-06-05T05:05:09;3.97;;;2.60;;
2646;SDS011;1333;50.958;6.770;2023-06-05T05:07:38;2.60;;;2.37;;
2646;SDS011;1333;50.958;6.770;2023-06-05T05:10:05;3.17;;;2.80;;
2646;SDS011;1333;50.958;6.770;2023-06-05T05:12:31;3.00;;;2.57;;
2646;SDS011;1333;50.958;6.770;2023-06-05T05:14:57;6.73;;;2.20;;
2646;SDS011;1333;50.958;6.770;2023-06-05T05:17:23;4.87;;;3.30;;
2646;SDS011;1333;50.958;6.770;2023-06-05T05:19:48;2.53;;;2.33;;
2646;SDS011;1333;50.958;6.770;2023-06-05T05:22:14;4.87;;;2.67;;
2646;SDS011;1333;50.958;6.770;2023-06-05T05:24:39;3.10;;;2.80;;
2646;SDS011;1333;50.958;6.770;2023-06-05T05:27:05;2.90;;;2.40;;
2646;SDS011;1333;50.958;6.770;2023-06-05T05:29:31;8.97;;;2.97;;
2646;SDS011;1333;50.958;6.770;2023-06-05T05:31:58;3.90;;;2.57;;
2646;SDS011;1333;50.958;6.770;2023-06-05T05:34:23;2.93;;;2.30;;
2646;SDS011;1333;50.958;6.770;2023-06-05T05:36:49;3.80;;;2.40;;
2646;SDS011;1333;50.958;6.770;2023-06-05T05:39:15;2.60;;;2.30;;
2646;SDS011;1333;50.958;6.770;2023-06-05T05:41:40;5.93;;;3.37;;
2646;SDS011;1333;50.958;6.770;2023-06-05T05:44:06;4.47;;;2.87;;
2646;SDS011;1333;50.958;6.770;2023-06-05T05:46:32;3.57;;;2.47;;
2646;SDS011;1333;50.958;6.770;2023-06-05T05:48:58;2.90;;;2.13;;
2646;SDS011;1333;50.958;6.770;2023-06-05T05:51:23;10.27;;;2.80;;
2646;SDS011;1333;50.958;6.770;2023-06-05T05:53:49;3.33;;;3.00;;
2646;SDS011;1333;50.958;6.770;2023-06-05T05:56:15;3.50;;;2.67;;
2646;SDS011;1333;50.958;6.770;2023-06-05T05:58:40;3.20;;;2.70;;
2646;SDS011;1333;50.958;6.770;2023-06-05T06:01:07;4.03;;;2.20;;
2646;SDS011;1333;50.958;6.770;2023-06-05T06:03:33;2.83;;;2.63;;
2646;SDS011;1333;50.958;6.770;2023-06-05T06:06:02;2.87;;;2.37;;
2646;SDS011;1333;50.958;6.770;2023-06-05T06:08:29;4.50;;;3.20;;
2646;SDS011;1333;50.958;6.770;2023-06-05T06:10:55;5.13;;;2.40;;
2646;SDS011;1333;50.958;6.770;2023-06-05T06:13:20;4.97;;;3.13;;
2646;SDS011;1333;50.958;6.770;2023-06-05T06:15:46;2.67;;;2.33;;
2646;SDS011;1333;50.958;6.770;2023-06-05T06:18:11;2.90;;;2.37;;
2646;SDS011;1333;50.958;6.770;2023-06-05T06:20:37;2.97;;;2.40;;
2646;SDS011;1333;50.958;6.770;2023-06-05T06:23:03;2.73;;;2.27;;
2646;SDS011;1333;50.958;6.770;2023-06-05T06:25:28;2.60;;;2.40;;
2646;SDS011;1333;50.958;6.770;2023-06-05T06:27:56;2.63;;;2.27;;
2646;SDS011;1333;50.958;6.770;2023-06-05T06:30:25;4.97;;;2.97;;
2646;SDS011;1333;50.958;6.770;2023-06-05T06:32:52;4.50;;;2.20;;
2646;SDS011;1333;50.958;6.770;2023-06-05T06:35:23;3.50;;;2.73;;
2646;SDS011;1333;50.958;6.770;2023-06-05T06:37:49;3.83;;;2.50;;
2646;SDS011;1333;50.958;6.770;2023-06-05T06:40:18;3.20;;;1.90;;
2646;SDS011;1333;50.958;6.770;2023-06-05T06:42:44;2.60;;;2.33;;
2646;SDS011;1333;50.958;6.770;2023-06-05T06:45:09;5.83;;;2.30;;
2646;SDS011;1333;50.958;6.770;2023-06-05T06:47:35;3.37;;;2.53;;
2646;SDS011;1333;50.958;6.770;2023-06-05T06:50:01;2.70;;;2.27;;
2646;SDS011;1333;50.958;6.770;2023-06-05T06:52:26;4.40;;;2.50;;
2646;SDS011;1333;50.958;6.770;2023-06-05T06:54:52;3.10;;;2.50;;
2646;SDS011;1333;50.958;6.770;2023-06-05T06:57:17;2.10;;;1.90;;
2646;SDS011;1333;50.958;6.770;2023-06-05T06:59:43;2.73;;;2.40;;
2646;SDS011;1333;50.958;6.770;2023-06-05T07:02:11;3.27;;;2.97;;
2646;SDS011;1333;50.958;6.770;2023-06-05T07:04:41;3.13;;;2.57;;
2646;SDS011;1333;50.958;6.770;2023-06-05T07:07:08;2.87;;;2.57;;
2646;SDS011;1333;50.958;6.770;2023-06-05T07:09:36;2.97;;;2.67;;
2646;SDS011;1333;50.958;6.770;2023-06-05T07:12:02;3.87;;;2.10;;
2646;SDS011;1333;50.958;6.770;2023-06-05T07:14:31;3.00;;;2.37;;
2646;SDS011;1333;50.958;6.770;2023-06-05T07:16:58;3.90;;;2.20;;
2646;SDS011;1333;50.958;6.770;2023-06-05T07:19:25;5.60;;;2.70;;
2646;SDS011;1333;50.958;6.770;2023-06-05T07:21:52;3.00;;;2.60;;
2646;SDS011;1333;50.958;6.770;2023-06-05T07:24:18;2.33;;;2.13;;
2646;SDS011;1333;50.958;6.770;2023-06-05T07:26:44;4.27;;;3.30;;
2646;SDS011;1333;50.958;6.770;2023-06-05T07:29:10;2.40;;;2.20;;
2646;SDS011;1333;50.958;6.770;2023-06-05T07:31:35;2.70;;;2.00;;
2646;SDS011;1333;50.958;6.770;2023-06-05T07:34:01;4.97;;;2.70;;
2646;SDS011;1333;50.958;6.770;2023-06-05T07:36:27;1.97;;;1.87;;
2646;SDS011;1333;50.958;6.770;2023-06-05T07:38:53;3.13;;;2.00;;
2646;SDS011;1333;50.958;6.770;2023-06-05T07:41:19;2.57;;;2.37;;
2646;SDS011;1333;50.958;6.770;2023-06-05T07:43:46;2.93;;;2.60;;
2646;SDS011;1333;50.958;6.770;2023-06-05T07:46:11;3.90;;;3.00;;
2646;SDS011;1333;50.958;6.770;2023-06-05T07:48:37;3.20;;;2.73;;
2646;SDS011;1333;50.958;6.770;2023-06-05T07:51:03;2.60;;;2.40;;
2646;SDS011;1333;50.958;6.770;2023-06-05T07:53:28;2.90;;;2.60;;
2646;SDS011;1333;50.958;6.770;2023-06-05T07:55:54;2.97;;;2.50;;
2646;SDS011;1333;50.958;6.770;2023-06-05T07:58:21;2.60;;;2.40;;
2646;SDS011;1333;50.958;6.770;2023-06-05T08:00:46;3.37;;;2.20;;
2646;SDS011;1333;50.958;6.770;2023-06-05T08:03:15;2.77;;;2.57;;
2646;SDS011;1333;50.958;6.770;2023-06-05T08:05:45;4.67;;;2.77;;
2646;SDS011;1333;50.958;6.770;2023-06-05T08:08:14;2.77;;;2.50;;
2646;SDS011;1333;50.958;6.770;2023-06-05T08:10:41;2.53;;;2.33;;
2646;SDS011;1333;50.958;6.770;2023-06-05T08:13:10;3.10;;;2.90;;
2646;SDS011;1333;50.958;6.770;2023-06-05T08:15:36;2.50;;;2.30;;
2646;SDS011;1333;50.958;6.770;2023-06-05T08:18:02;2.63;;;2.37;;
2646;SDS011;1333;50.958;6.770;2023-06-05T08:20:28;3.20;;;3.00;;
2646;SDS011;1333;50.958;6.770;2023-06-05T08:22:54;3.77;;;3.47;;
2646;SDS011;1333;50.958;6.770;2023-06-05T08:25:22;3.20;;;2.80;;
2646;SDS011;1333;50.958;6.770;2023-06-05T08:27:51;3.13;;;2.93;;
2646;SDS011;1333;50.958;6.770;2023-06-05T08:30:17;2.90;;;2.70;;
2646;SDS011;1333;50.958;6.770;2023-06-05T08:32:42;3.23;;;2.90;;
2646;SDS011;1333;50.958;6.770;2023-06-05T08:35:08;3.33;;;3.00;;
2646;SDS011;1333;50.958;6.770;2023-06-05T08:37:35;3.33;;;3.13;;
2646;SDS011;1333;50.958;6.770;2023-06-05T08:40:02;4.23;;;3.30;;
2646;SDS011;1333;50.958;6.770;2023-06-05T08:42:31;3.60;;;3.30;;
2646;SDS011;1333;50.958;6.770;2023-06-05T08:44:57;3.43;;;3.23;;
2646;SDS011;1333;50.958;6.770;2023-06-05T08:47:22;3.50;;;3.00;;
2646;SDS011;1333;50.958;6.770;2023-06-05T08:49:55;3.10;;;2.90;;
2646;SDS011;1333;50.958;6.770;2023-06-05T08:52:24;3.33;;;3.13;;
2646;SDS011;1333;50.958;6.770;2023-06-05T08:54:51;3.93;;;3.03;;
2646;SDS011;1333;50.958;6.770;2023-06-05T08:57:17;3.10;;;3.00;;
2646;SDS011;1333;50.958;6.770;2023-06-05T08:59:43;3.73;;;3.53;;
2646;SDS011;1333;50.958;6.770;2023-06-05T09:02:10;3.83;;;3.60;;
2646;SDS011;1333;50.958;6.770;2023-06-05T09:04:36;3.27;;;3.07;;
2646;SDS011;1333;50.958;6.770;2023-06-05T09:07:03;3.97;;;3.67;;
2646;SDS011;1333;50.958;6.770;2023-06-05T09:09:29;3.40;;;3.27;;
2646;SDS011;1333;50.958;6.770;2023-06-05T09:12:04;3.80;;;3.60;;
2646;SDS011;1333;50.958;6.770;2023-06-05T09:14:31;3.43;;;3.23;;
2646;SDS011;1333;50.958;6.770;2023-06-05T09:17:01;3.50;;;3.30;;
2646;SDS011;1333;50.958;6.770;2023-06-05T09:19:36;3.77;;;3.57;;
2646;SDS011;1333;50.958;6.770;2023-06-05T09:22:07;4.93;;;4.27;;
2646;SDS011;1333;50.958;6.770;2023-06-05T09:24:34;3.80;;;3.60;;
2646;SDS011;1333;50.958;6.770;2023-06-05T09:27:01;3.40;;;3.20;;
2646;SDS011;1333;50.958;6.770;2023-06-05T09:29:33;3.83;;;3.63;;
2646;SDS011;1333;50.958;6.770;2023-06-05T09:32:04;3.90;;;3.60;;
2646;SDS011;1333;50.958;6.770;2023-06-05T09:34:37;4.23;;;3.93;;
2646;SDS011;1333;50.958;6.770;2023-06-05T09:37:05;3.97;;;3.77;;
2646;SDS011;1333;50.958;6.770;2023-06-05T09:39:32;3.67;;;3.47;;
2646;SDS011;1333;50.958;6.770;2023-06-05T09:41:59;3.93;;;3.73;;
2646;SDS011;1333;50.958;6.770;2023-06-05T09:44:25;4.03;;;3.77;;
2646;SDS011;1333;50.958;6.770;2023-06-05T09:47:02;3.50;;;3.40;;
2646;SDS011;1333;50.958;6.770;2023-06-05T09:52:05;3.73;;;3.53;;
2646;SDS011;1333;50.958;6.770;2023-06-05T09:54:32;3.60;;;3.40;;
2646;SDS011;1333;50.958;6.770;2023-06-05T09:56:59;3.80;;;3.50;;
2646;SDS011;1333;50.958;6.770;2023-06-05T09:59:33;4.10;;;3.90;;
2646;SDS011;1333;50.958;6.770;2023-06-05T10:02:03;3.40;;;3.13;;
2646;SDS011;1333;50.958;6.770;2023-06-05T10:04:32;3.57;;;3.37;;
2646;SDS011;1333;50.958;6.770;2023-06-05T10:07:03;3.43;;;3.23;;
2646;SDS011;1333;50.958;6.770;2023-06-05T10:09:30;3.60;;;3.40;;
2646;SDS011;1333;50.958;6.770;2023-06-05T10:11:59;3.80;;;3.40;;
2646;SDS011;1333;50.958;6.770;2023-06-05T10:14:25;3.80;;;3.60;;
2646;SDS011;1333;50.958;6.770;2023-06-05T10:16:51;3.93;;;3.63;;
2646;SDS011;1333;50.958;6.770;2023-06-05T10:19:17;6.20;;;3.70;;
2646;SDS011;1333;50.958;6.770;2023-06-05T10:21:47;3.03;;;2.83;;
2646;SDS011;1333;50.958;6.770;2023-06-05T10:24:15;3.40;;;3.20;;
2646;SDS011;1333;50.958;6.770;2023-06-05T10:37:56;4.47;;;4.13;;
2646;SDS011;1333;50.958;6.770;2023-06-05T10:40:24;4.50;;;3.27;;
2646;SDS011;1333;50.958;6.770;2023-06-05T10:42:51;3.83;;;3.63;;
2646;SDS011;1333;50.958;6.770;2023-06-05T10:45:29;3.90;;;3.70;;
2646;SDS011;1333;50.958;6.770;2023-06-05T10:47:56;3.63;;;3.43;;
2646;SDS011;1333;50.958;6.770;2023-06-05T10:50:22;3.60;;;3.40;;
2646;SDS011;1333;50.958;6.770;2023-06-05T10:52:50;3.50;;;3.30;;
2646;SDS011;1333;50.958;6.770;2023-06-05T10:55:17;3.40;;;3.20;;
2646;SDS011;1333;50.958;6.770;2023-06-05T11:00:21;3.77;;;3.53;;
2646;SDS011;1333;50.958;6.770;2023-06-05T11:02:47;3.20;;;3.00;;
2646;SDS011;1333;50.958;6.770;2023-06-05T11:05:13;3.90;;;3.63;;
2646;SDS011;1333;50.958;6.770;2023-06-05T11:07:39;4.17;;;3.87;;
2646;SDS011;1333;50.958;6.770;2023-06-05T11:17:47;3.87;;;3.50;;
2646;SDS011;1333;50.958;6.770;2023-06-05T11:27:47;3.50;;;3.30;;
2646;SDS011;1333;50.958;6.770;2023-06-05T11:30:14;3.63;;;3.37;;
2646;SDS011;1333;50.958;6.770;2023-06-05T11:32:41;4.30;;;4.00;;
2646;SDS011;1333;50.958;6.770;2023-06-05T11:35:07;6.10;;;5.70;;
2646;SDS011;1333;50.958;6.770;2023-06-05T11:37:33;4.10;;;3.90;;
2646;SDS011;1333;50.958;6.770;2023-06-05T11:39:59;3.87;;;3.67;;
2646;SDS011;1333;50.958;6.770;2023-06-05T11:42:38;4.30;;;4.00;;
2646;SDS011;1333;50.958;6.770;2023-06-05T11:45:10;3.63;;;3.43;;
2646;SDS011;1333;50.958;6.770;2023-06-05T11:47:36;4.20;;;3.90;;
2646;SDS011;1333;50.958;6.770;2023-06-05T11:50:12;4.83;;;4.53;;
2646;SDS011;1333;50.958;6.770;2023-06-05T11:52:39;4.10;;;3.90;;
2646;SDS011;1333;50.958;6.770;2023-06-05T11:57:44;4.47;;;4.07;;
2646;SDS011;1333;50.958;6.770;2023-06-05T12:00:14;3.63;;;3.43;;
2646;SDS011;1333;50.958;6.770;2023-06-05T12:02:41;3.90;;;3.70;;
2646;SDS011;1333;50.958;6.770;2023-06-05T12:05:10;9.40;;;4.10;;
2646;SDS011;1333;50.958;6.770;2023-06-05T12:07:37;8.60;;;3.10;;
2646;SDS011;1333;50.958;6.770;2023-06-05T12:10:05;3.50;;;3.30;;
2646;SDS011;1333;50.958;6.770;2023-06-05T12:12:32;3.40;;;3.20;;
2646;SDS011;1333;50.958;6.770;2023-06-05T12:15:14;4.70;;;3.90;;
2646;SDS011;1333;50.958;6.770;2023-06-05T12:17:50;3.97;;;3.70;;
2646;SDS011;1333;50.958;6.770;2023-06-05T12:20:17;3.67;;;3.37;;
2646;SDS011;1333;50.958;6.770;2023-06-05T12:22:43;3.23;;;2.93;;
2646;SDS011;1333;50.958;6.770;2023-06-05T12:27:44;3.50;;;3.30;;
2646;SDS011;1333;50.958;6.770;2023-06-05T12:30:12;3.87;;;3.47;;
2646;SDS011;1333;50.958;6.770;2023-06-05T12:32:42;4.57;;;3.27;;
2646;SDS011;1333;50.958;6.770;2023-06-05T12:35:23;3.30;;;3.10;;
2646;SDS011;1333;50.958;6.770;2023-06-05T12:37:50;3.33;;;3.13;;
2646;SDS011;1333;50.958;6.770;2023-06-05T12:40:16;3.50;;;3.10;;
2646;SDS011;1333;50.958;6.770;2023-06-05T12:42:46;3.57;;;3.03;;
2646;SDS011;1333;50.958;6.770;2023-06-05T12:45:12;3.67;;;3.37;;
2646;SDS011;1333;50.958;6.770;2023-06-05T12:47:38;3.60;;;3.33;;
2646;SDS011;1333;50.958;6.770;2023-06-05T12:50:05;2.93;;;2.73;;
2646;SDS011;1333;50.958;6.770;2023-06-05T12:52:32;3.30;;;3.10;;
2646;SDS011;1333;50.958;6.770;2023-06-05T12:54:58;3.70;;;3.10;;
2646;SDS011;1333;50.958;6.770;2023-06-05T12:57:24;3.50;;;3.20;;
2646;SDS011;1333;50.958;6.770;2023-06-05T13:00:09;3.03;;;2.83;;
2646;SDS011;1333;50.958;6.770;2023-06-05T13:02:38;3.63;;;3.33;;
2646;SDS011;1333;50.958;6.770;2023-06-05T13:05:08;3.20;;;3.00;;
2646;SDS011;1333;50.958;6.770;2023-06-05T13:07:34;3.13;;;2.93;;
2646;SDS011;1333;50.958;6.770;2023-06-05T13:10:01;4.30;;;3.00;;
2646;SDS011;1333;50.958;6.770;2023-06-05T13:12:28;3.30;;;2.40;;
2646;SDS011;1333;50.958;6.770;2023-06-05T13:14:53;3.37;;;2.80;;
2646;SDS011;1333;50.958;6.770;2023-06-05T13:17:19;4.40;;;3.23;;
2646;SDS011;1333;50.958;6.770;2023-06-05T13:19:44;3.10;;;2.80;;
2646;SDS011;1333;50.958;6.770;2023-06-05T13:22:10;3.50;;;2.77;;
2646;SDS011;1333;50.958;6.770;2023-06-05T13:24:35;2.57;;;2.37;;
2646;SDS011;1333;50.958;6.770;2023-06-05T13:27:01;3.53;;;2.90;;
2646;SDS011;1333;50.958;6.770;2023-06-05T13:29:27;2.90;;;2.70;;
2646;SDS011;1333;50.958;6.770;2023-06-05T13:31:52;3.90;;;2.80;;
2646;SDS011;1333;50.958;6.770;2023-06-05T13:34:18;2.67;;;2.47;;
2646;SDS011;1333;50.958;6.770;2023-06-05T13:36:43;3.80;;;2.40;;
2646;SDS011;1333;50.958;6.770;2023-06-05T13:39:09;2.67;;;2.47;;
2646;SDS011;1333;50.958;6.770;2023-06-05T13:41:35;4.17;;;2.70;;
2646;SDS011;1333;50.958;6.770;2023-06-05T13:44:01;3.83;;;2.63;;
2646;SDS011;1333;50.958;6.770;2023-06-05T13:46:26;6.40;;;3.87;;
2646;SDS011;1333;50.958;6.770;2023-06-05T13:48:52;3.70;;;3.03;;
2646;SDS011;1333;50.958;6.770;2023-06-05T13:51:17;6.10;;;3.03;;
2646;SDS011;1333;50.958;6.770;2023-06-05T13:53:44;3.37;;;3.07;;
2646;SDS011;1333;50.958;6.770;2023-06-05T13:56:10;2.53;;;2.33;;
2646;SDS011;1333;50.958;6.770;2023-06-05T13:58:35;2.93;;;2.50;;
2646;SDS011;1333;50.958;6.770;2023-06-05T14:01:01;2.63;;;2.43;;
2646;SDS011;1333;50.958;6.770;2023-06-05T14:03:27;2.90;;;2.60;;
2646;SDS011;1333;50.958;6.770;2023-06-05T14:05:52;2.60;;;2.40;;
2646;SDS011;1333;50.958;6.770;2023-06-05T14:08:18;2.40;;;2.20;;
2646;SDS011;1333;50.958;6.770;2023-06-05T14:10:45;2.60;;;2.40;;
2646;SDS011;1333;50.958;6.770;2023-06-05T14:13:11;5.10;;;2.67;;
2646;SDS011;1333;50.958;6.770;2023-06-05T14:15:37;3.90;;;3.03;;
2646;SDS011;1333;50.958;6.770;2023-06-05T14:18:03;4.10;;;2.80;;
2646;SDS011;1333;50.958;6.770;2023-06-05T14:20:30;4.47;;;2.80;;
2646;SDS011;1333;50.958;6.770;2023-06-05T14:22:57;3.47;;;2.67;;
2646;SDS011;1333;50.958;6.770;2023-06-05T14:25:23;2.60;;;2.20;;
2646;SDS011;1333;50.958;6.770;2023-06-05T14:27:50;3.70;;;3.37;;
2646;SDS011;1333;50.958;6.770;2023-06-05T14:30:19;3.03;;;2.73;;
2646;SDS011;1333;50.958;6.770;2023-06-05T14:32:46;4.50;;;3.83;;
2646;SDS011;1333;50.958;6.770;2023-06-05T14:35:11;3.00;;;2.80;;
2646;SDS011;1333;50.958;6.770;2023-06-05T14:37:37;2.63;;;2.43;;
2646;SDS011;1333;50.958;6.770;2023-06-05T14:40:02;3.20;;;2.63;;
2646;SDS011;1333;50.958;6.770;2023-06-05T14:42:29;3.77;;;3.30;;
2646;SDS011;1333;50.958;6.770;2023-06-05T14:44:55;4.50;;;4.10;;
2646;SDS011;1333;50.958;6.770;2023-06-05T14:47:20;5.53;;;5.03;;
2646;SDS011;1333;50.958;6.770;2023-06-05T14:49:47;4.13;;;2.27;;
2646;SDS011;1333;50.958;6.770;2023-06-05T14:52:13;2.57;;;2.37;;
2646;SDS011;1333;50.958;6.770;2023-06-05T14:54:38;4.03;;;1.93;;
2646;SDS011;1333;50.958;6.770;2023-06-05T14:57:04;2.07;;;1.87;;
2646;SDS011;1333;50.958;6.770;2023-06-05T14:59:30;3.47;;;2.37;;
2646;SDS011;1333;50.958;6.770;2023-06-05T15:01:56;5.00;;;2.10;;
2646;SDS011;1333;50.958;6.770;2023-06-05T15:04:21;3.60;;;2.37;;
2646;SDS011;1333;50.958;6.770;2023-06-05T15:06:47;2.23;;;2.03;;
2646;SDS011;1333;50.958;6.770;2023-06-05T15:09:16;2.50;;;2.30;;
2646;SDS011;1333;50.958;6.770;2023-06-05T15:11:41;2.37;;;2.17;;
2646;SDS011;1333;50.958;6.770;2023-06-05T15:14:07;2.40;;;2.20;;
2646;SDS011;1333;50.958;6.770;2023-06-05T15:16:32;2.50;;;2.30;;
2646;SDS011;1333;50.958;6.770;2023-06-05T15:18:58;3.67;;;2.10;;
2646;SDS011;1333;50.958;6.770;2023-06-05T15:21:23;4.00;;;2.73;;
2646;SDS011;1333;50.958;6.770;2023-06-05T15:23:49;3.13;;;2.13;;
2646;SDS011;1333;50.958;6.770;2023-06-05T15:26:15;2.03;;;1.83;;
2646;SDS011;1333;50.958;6.770;2023-06-05T15:28:41;3.30;;;2.20;;
2646;SDS011;1333;50.958;6.770;2023-06-05T15:31:06;2.40;;;2.20;;
2646;SDS011;1333;50.958;6.770;2023-06-05T15:33:32;2.97;;;2.40;;
2646;SDS011;1333;50.958;6.770;2023-06-05T15:35:57;3.67;;;3.10;;
2646;SDS011;1333;50.958;6.770;2023-06-05T15:38:23;4.80;;;2.63;;
2646;SDS011;1333;50.958;6.770;2023-06-05T15:40:49;5.57;;;3.60;;
2646;SDS011;1333;50.958;6.770;2023-06-05T15:43:15;12.37;;;6.10;;
2646;SDS011;1333;50.958;6.770;2023-06-05T15:45:41;5.10;;;3.70;;
2646;SDS011;1333;50.958;6.770;2023-06-05T15:48:07;3.53;;;3.13;;
2646;SDS011;1333;50.958;6.770;2023-06-05T15:50:36;3.83;;;3.40;;
2646;SDS011;1333;50.958;6.770;2023-06-05T15:53:02;3.20;;;2.90;;